createdAt,value
2022-12-06T00:01:32.212Z,6.50
2022-12-06T00:04:01.718Z,6.40
2022-12-06T00:06:30.708Z,6.40
2022-12-06T00:08:58.751Z,6.50
2022-12-06T00:11:28.528Z,6.50
2022-12-06T00:14:00.504Z,6.40
2022-12-06T00:16:28.518Z,6.50
2022-12-06T00:18:55.767Z,6.50
2022-12-06T00:21:28.480Z,6.50
2022-12-06T00:24:07.497Z,6.50
2022-12-06T00:26:39.840Z,6.50
2022-12-06T00:29:07.946Z,6.50
2022-12-06T00:31:35.800Z,6.40
2022-12-06T00:34:04.582Z,6.40
2022-12-06T00:36:33.634Z,6.40
2022-12-06T00:39:02.439Z,6.40
2022-12-06T00:41:29.439Z,6.40
2022-12-06T00:43:56.307Z,6.40
2022-12-06T00:46:26.408Z,6.40
2022-12-06T00:48:54.765Z,6.40
2022-12-06T00:51:22.598Z,6.40
2022-12-06T00:53:50.254Z,6.40
2022-12-06T00:56:18.037Z,6.40
2022-12-06T00:58:45.601Z,6.40
2022-12-06T01:01:21.723Z,6.40
2022-12-06T01:03:53.450Z,6.40
2022-12-06T01:06:23.112Z,6.40
2022-12-06T01:08:50.148Z,6.40
2022-12-06T01:11:17.618Z,6.50
2022-12-06T01:13:44.848Z,6.40
2022-12-06T01:16:20.672Z,6.40
2022-12-06T01:18:47.765Z,6.40
2022-12-06T01:21:17.279Z,6.40
2022-12-06T01:23:45.554Z,6.30
2022-12-06T01:26:25.337Z,6.30
2022-12-06T01:28:53.768Z,6.40
2022-12-06T01:31:21.370Z,6.40
2022-12-06T01:33:48.407Z,6.30
2022-12-06T01:36:24.935Z,6.30
2022-12-06T01:38:57.307Z,6.40
2022-12-06T01:41:26.289Z,6.40
2022-12-06T01:43:54.273Z,6.30
2022-12-06T01:46:33.159Z,6.30
2022-12-06T01:49:08.434Z,6.40
2022-12-06T01:51:36.263Z,6.30
2022-12-06T01:54:05.714Z,6.30
2022-12-06T01:56:32.693Z,6.30
2022-12-06T01:59:00.316Z,6.30
2022-12-06T02:01:30.058Z,6.30
2022-12-06T02:03:59.909Z,6.30
2022-12-06T02:06:28.303Z,6.30
2022-12-06T02:08:57.141Z,6.40
2022-12-06T02:11:24.276Z,6.40
2022-12-06T02:13:51.568Z,6.40
2022-12-06T02:16:37.464Z,6.40
2022-12-06T02:19:42.018Z,6.40
2022-12-06T02:22:23.224Z,6.40
2022-12-06T02:25:34.178Z,6.40
2022-12-06T02:28:20.102Z,6.40
2022-12-06T02:31:00.112Z,6.40
2022-12-06T02:33:46.266Z,6.40
2022-12-06T02:36:29.539Z,6.40
2022-12-06T02:39:02.582Z,6.40
2022-12-06T02:41:40.306Z,6.30
2022-12-06T02:44:12.204Z,6.30
2022-12-06T02:46:41.527Z,6.30
2022-12-06T02:49:10.173Z,6.40
2022-12-06T02:51:38.347Z,6.30
2022-12-06T02:54:09.009Z,6.30
2022-12-06T02:56:36.131Z,6.40
2022-12-06T02:59:03.994Z,6.40
2022-12-06T03:01:33.504Z,6.40
2022-12-06T03:04:09.287Z,6.40
2022-12-06T03:06:56.042Z,6.40
2022-12-06T03:10:03.678Z,6.40
2022-12-06T03:12:55.941Z,6.40
2022-12-06T03:15:57.684Z,6.40
2022-12-06T03:18:51.830Z,6.40
2022-12-06T03:21:25.445Z,6.40
2022-12-06T03:23:52.760Z,6.40
2022-12-06T03:26:25.312Z,6.40
2022-12-06T03:28:56.032Z,6.40
2022-12-06T03:31:24.162Z,6.40
2022-12-06T03:34:18.799Z,6.30
2022-12-06T03:36:47.841Z,6.30
2022-12-06T03:39:21.310Z,6.40
2022-12-06T03:41:53.810Z,6.30
2022-12-06T03:44:21.543Z,6.30
2022-12-06T03:46:52.862Z,6.40
2022-12-06T03:49:29.719Z,6.30
2022-12-06T03:51:56.540Z,6.30
2022-12-06T03:54:23.556Z,6.30
2022-12-06T03:56:50.555Z,6.30
2022-12-06T03:59:17.403Z,6.30
2022-12-06T04:01:44.614Z,6.30
2022-12-06T04:04:11.780Z,6.40
2022-12-06T04:06:38.623Z,6.40
2022-12-06T04:09:23.858Z,6.40
2022-12-06T04:11:50.648Z,6.40
2022-12-06T04:14:17.605Z,6.40
2022-12-06T04:17:03.022Z,6.30
2022-12-06T04:19:29.863Z,6.30
2022-12-06T04:22:15.417Z,6.30
2022-12-06T04:24:42.186Z,6.30
2022-12-06T04:27:27.840Z,6.30
2022-12-06T04:30:13.330Z,6.30
2022-12-06T04:32:58.920Z,6.30
2022-12-06T04:35:44.184Z,6.30
2022-12-06T04:38:29.677Z,6.30
2022-12-06T04:40:56.574Z,6.30
2022-12-06T04:43:42.117Z,6.30
2022-12-06T04:46:14.115Z,6.30
2022-12-06T04:48:41.674Z,6.30
2022-12-06T04:51:12.988Z,6.30
2022-12-06T04:53:40.016Z,6.30
2022-12-06T04:56:06.978Z,6.30
2022-12-06T04:58:34.021Z,6.30
2022-12-06T05:01:00.837Z,6.30
2022-12-06T05:03:27.763Z,6.30
2022-12-06T05:05:54.593Z,6.30
2022-12-06T05:08:21.555Z,6.30
2022-12-06T05:10:51.778Z,6.30
2022-12-06T05:13:20.266Z,6.30
2022-12-06T05:16:07.234Z,6.30
2022-12-06T05:18:34.670Z,6.30
2022-12-06T05:21:06.882Z,6.30
2022-12-06T05:23:34.910Z,6.30
2022-12-06T05:26:04.179Z,6.40
2022-12-06T05:28:32.067Z,6.40
2022-12-06T05:30:58.944Z,6.30
2022-12-06T05:33:26.047Z,6.30
2022-12-06T05:35:52.987Z,6.30
2022-12-06T05:38:20.956Z,6.30
2022-12-06T05:40:47.946Z,6.30
2022-12-06T05:43:15.907Z,6.30
2022-12-06T05:45:43.485Z,6.30
2022-12-06T05:48:10.411Z,6.30
2022-12-06T05:50:37.408Z,6.30
2022-12-06T05:53:04.722Z,6.30
2022-12-06T05:55:31.557Z,6.30
2022-12-06T05:57:58.473Z,6.30
2022-12-06T06:00:25.340Z,6.30
2022-12-06T06:02:52.219Z,6.30
2022-12-06T06:05:19.187Z,6.30
2022-12-06T06:07:46.031Z,6.30
2022-12-06T06:10:13.131Z,6.30
2022-12-06T06:12:40.056Z,6.30
2022-12-06T06:15:07.306Z,6.30
2022-12-06T06:17:37.391Z,6.30
2022-12-06T06:20:06.240Z,6.30
2022-12-06T06:22:35.221Z,6.30
2022-12-06T06:25:02.721Z,6.30
2022-12-06T06:27:32.147Z,6.30
2022-12-06T06:29:59.162Z,6.30
2022-12-06T06:32:26.191Z,6.30
2022-12-06T06:34:53.019Z,6.30
2022-12-06T06:37:19.787Z,6.30
2022-12-06T06:39:46.595Z,6.30
2022-12-06T06:42:13.347Z,6.30
2022-12-06T06:44:40.219Z,6.30
2022-12-06T06:47:07.083Z,6.30
2022-12-06T06:49:33.848Z,6.30
2022-12-06T06:52:00.683Z,6.40
2022-12-06T06:54:30.148Z,6.30
2022-12-06T06:56:57.490Z,6.40
2022-12-06T06:59:25.082Z,6.30
2022-12-06T07:01:52.190Z,6.30
2022-12-06T07:04:19.081Z,6.30
2022-12-06T07:06:45.977Z,6.30
2022-12-06T07:09:29.332Z,6.30
2022-12-06T07:11:56.185Z,6.30
2022-12-06T07:14:23.155Z,6.30
2022-12-06T07:16:50.007Z,6.30
2022-12-06T07:19:16.866Z,6.30
2022-12-06T07:21:46.408Z,6.30
2022-12-06T07:24:13.281Z,6.30
2022-12-06T07:26:40.149Z,6.30
2022-12-06T07:29:06.946Z,6.30
2022-12-06T07:31:33.830Z,6.30
2022-12-06T07:34:02.076Z,6.40
2022-12-06T07:36:33.048Z,6.30
2022-12-06T07:39:00.670Z,6.30
2022-12-06T07:41:48.498Z,6.30
2022-12-06T07:44:35.803Z,6.30
2022-12-06T07:47:03.318Z,6.30
2022-12-06T07:49:30.691Z,6.30
2022-12-06T07:51:57.652Z,6.30
2022-12-06T07:54:25.607Z,6.30
2022-12-06T07:56:52.527Z,6.30
2022-12-06T07:59:19.446Z,6.30
2022-12-06T08:01:46.448Z,6.30
2022-12-06T08:04:13.754Z,6.30
2022-12-06T08:06:41.026Z,6.30
2022-12-06T08:09:08.321Z,6.30
2022-12-06T08:11:36.013Z,6.30
2022-12-06T08:14:04.674Z,6.30
2022-12-06T08:16:31.624Z,6.30
2022-12-06T08:18:58.515Z,6.30
2022-12-06T08:21:26.671Z,6.30
2022-12-06T08:23:54.515Z,6.40
2022-12-06T08:26:21.579Z,6.40
2022-12-06T08:28:48.430Z,6.40
2022-12-06T08:31:18.351Z,6.40
2022-12-06T08:33:45.754Z,6.40
2022-12-06T08:36:16.426Z,6.40
2022-12-06T08:38:43.575Z,6.40
2022-12-06T08:41:30.933Z,6.30
2022-12-06T08:43:59.581Z,6.30
2022-12-06T08:46:27.400Z,6.40
2022-12-06T08:48:54.740Z,6.40
2022-12-06T08:51:21.842Z,6.40
2022-12-06T08:53:48.651Z,6.30
2022-12-06T08:56:15.757Z,6.40
2022-12-06T08:58:42.609Z,6.30
2022-12-06T09:01:18.834Z,6.40
2022-12-06T09:03:45.736Z,6.40
2022-12-06T09:06:12.855Z,6.40
2022-12-06T09:08:39.746Z,6.50
2022-12-06T09:11:07.993Z,6.50
2022-12-06T09:13:36.980Z,6.50
2022-12-06T09:16:24.102Z,6.50
2022-12-06T09:18:54.129Z,6.50
2022-12-06T09:21:25.917Z,6.50
2022-12-06T09:23:55.950Z,6.50
2022-12-06T09:26:23.191Z,6.50
2022-12-06T09:28:51.594Z,6.60
2022-12-06T09:31:19.697Z,6.60
2022-12-06T09:33:47.310Z,6.60
2022-12-06T09:36:18.967Z,6.60
2022-12-06T09:38:47.873Z,6.60
2022-12-06T09:41:50.358Z,6.60
2022-12-06T09:44:29.161Z,6.70
2022-12-06T09:47:07.736Z,6.70
2022-12-06T09:49:47.485Z,6.60
2022-12-06T09:52:25.425Z,6.60
2022-12-06T09:55:04.200Z,6.60
2022-12-06T09:58:04.432Z,6.60
2022-12-06T10:00:42.604Z,6.60
2022-12-06T10:03:17.168Z,6.60
2022-12-06T10:06:02.761Z,6.60
2022-12-06T10:08:39.041Z,6.70
2022-12-06T10:11:23.738Z,6.60
2022-12-06T10:14:12.772Z,6.60
2022-12-06T10:16:59.121Z,6.60
2022-12-06T10:19:52.012Z,6.60
2022-12-06T10:22:38.467Z,6.70
2022-12-06T10:25:16.640Z,6.70
2022-12-06T10:27:57.209Z,6.70
2022-12-06T10:30:23.988Z,6.70
2022-12-06T10:33:05.702Z,6.70
2022-12-06T10:35:50.921Z,6.70
2022-12-06T10:38:30.705Z,6.70
2022-12-06T10:41:27.110Z,6.70
2022-12-06T10:44:06.656Z,6.70
2022-12-06T10:47:04.067Z,6.70
2022-12-06T10:49:33.960Z,6.80
2022-12-06T10:52:13.147Z,6.80
2022-12-06T10:54:50.917Z,6.80
2022-12-06T10:57:31.050Z,6.80
2022-12-06T11:00:10.357Z,6.80
2022-12-06T11:02:40.341Z,6.80
2022-12-06T11:05:30.706Z,6.80
2022-12-06T11:08:23.740Z,6.80
2022-12-06T11:10:51.395Z,6.80
2022-12-06T11:13:40.164Z,6.80
2022-12-06T11:16:32.737Z,6.70
2022-12-06T11:19:14.860Z,6.80
2022-12-06T11:21:50.040Z,6.80
2022-12-06T11:24:36.737Z,6.70
2022-12-06T11:27:33.318Z,6.80
2022-12-06T11:30:01.949Z,6.70
2022-12-06T11:32:29.292Z,6.70
2022-12-06T11:34:59.151Z,6.80
2022-12-06T11:37:32.472Z,6.70
2022-12-06T11:40:18.091Z,6.70
2022-12-06T11:42:44.989Z,6.70
2022-12-06T11:45:22.025Z,6.70
2022-12-06T11:47:48.926Z,6.80
2022-12-06T11:50:20.517Z,6.80
2022-12-06T11:52:55.668Z,6.80
2022-12-06T11:55:26.399Z,6.80
2022-12-06T11:58:16.619Z,6.80
2022-12-06T12:01:19.186Z,6.80
2022-12-06T12:03:47.566Z,6.70
2022-12-06T12:06:26.344Z,6.80
2022-12-06T12:09:05.061Z,6.80
2022-12-06T12:11:34.599Z,6.70
2022-12-06T12:14:04.079Z,6.80
2022-12-06T12:16:43.283Z,6.80
2022-12-06T12:19:50.284Z,6.80
2022-12-06T12:23:04.596Z,6.80
2022-12-06T12:25:34.503Z,6.80
2022-12-06T12:28:02.748Z,6.80
2022-12-06T12:30:40.552Z,6.80
2022-12-06T12:33:07.400Z,6.80
2022-12-06T12:35:35.687Z,6.80
2022-12-06T12:38:09.308Z,6.80
2022-12-06T12:40:37.762Z,6.90
2022-12-06T12:43:12.093Z,6.90
2022-12-06T12:45:40.979Z,6.90
2022-12-06T12:48:25.073Z,6.90
2022-12-06T12:51:00.472Z,6.90
2022-12-06T12:53:31.526Z,6.90
2022-12-06T12:56:19.378Z,6.90
2022-12-06T12:58:52.226Z,6.90
2022-12-06T13:01:24.863Z,6.90
2022-12-06T13:03:57.644Z,7.00
2022-12-06T13:06:31.657Z,7.00
2022-12-06T13:09:03.465Z,6.90
2022-12-06T13:11:36.492Z,7.00
2022-12-06T13:14:04.098Z,7.00
2022-12-06T13:16:36.767Z,7.00
2022-12-06T13:19:03.652Z,7.00
2022-12-06T13:21:32.258Z,7.00
2022-12-06T13:24:27.012Z,7.00
2022-12-06T13:26:58.492Z,7.00
2022-12-06T13:29:30.167Z,7.00
2022-12-06T13:31:59.724Z,7.00
2022-12-06T13:34:37.613Z,7.00
2022-12-06T13:37:25.169Z,7.00
2022-12-06T13:39:52.146Z,7.00
2022-12-06T13:42:37.365Z,7.00
2022-12-06T13:45:06.320Z,7.00
2022-12-06T13:47:33.067Z,7.00
2022-12-06T13:50:24.674Z,7.00
2022-12-06T13:52:51.440Z,7.00
2022-12-06T13:55:24.536Z,7.00
2022-12-06T13:57:57.212Z,7.00
2022-12-06T14:00:29.785Z,7.00
2022-12-06T14:03:03.755Z,7.00
2022-12-06T14:06:03.390Z,7.00
2022-12-06T14:08:43.451Z,7.00
2022-12-06T14:11:17.977Z,7.00
2022-12-06T14:13:58.884Z,7.00
2022-12-06T14:16:34.621Z,7.00
2022-12-06T14:19:13.326Z,7.00
2022-12-06T14:21:42.756Z,7.00
2022-12-06T14:24:31.442Z,7.00
2022-12-06T14:27:14.875Z,7.00
2022-12-06T14:29:43.644Z,7.00
2022-12-06T14:32:10.848Z,7.00
2022-12-06T14:34:37.986Z,7.00
2022-12-06T14:37:21.727Z,7.00
2022-12-06T14:39:53.021Z,7.00
2022-12-06T14:42:39.004Z,7.00
2022-12-06T14:45:15.895Z,7.00
2022-12-06T14:47:45.012Z,7.00
2022-12-06T14:50:32.460Z,7.00
2022-12-06T14:53:00.706Z,7.00
2022-12-06T14:55:30.757Z,7.00
2022-12-06T14:58:04.147Z,7.00
2022-12-06T15:00:38.389Z,7.00
2022-12-06T15:03:08.337Z,7.00
2022-12-06T15:05:43.979Z,7.00
2022-12-06T15:08:40.205Z,6.90
2022-12-06T15:11:10.109Z,7.00
2022-12-06T15:13:38.200Z,7.00
2022-12-06T15:16:08.124Z,7.00
2022-12-06T15:18:40.578Z,7.00
2022-12-06T15:21:15.192Z,7.00
2022-12-06T15:23:56.369Z,7.00
2022-12-06T15:26:24.737Z,7.00
2022-12-06T15:28:51.899Z,7.00
2022-12-06T15:31:27.514Z,7.00
2022-12-06T15:33:55.625Z,7.00
2022-12-06T15:36:25.161Z,6.90
2022-12-06T15:38:52.365Z,6.90
2022-12-06T15:41:21.974Z,6.90
2022-12-06T15:43:50.175Z,6.90
2022-12-06T15:46:23.789Z,6.90
2022-12-06T15:48:52.353Z,6.90
2022-12-06T15:51:24.815Z,6.90
2022-12-06T15:53:52.699Z,6.90
2022-12-06T15:56:24.183Z,6.90
2022-12-06T15:58:51.834Z,6.90
2022-12-06T16:01:27.947Z,6.90
2022-12-06T16:03:56.653Z,7.00
2022-12-06T16:06:25.248Z,6.90
2022-12-06T16:08:52.524Z,7.00
2022-12-06T16:11:22.197Z,6.90
2022-12-06T16:13:50.607Z,6.90
2022-12-06T16:16:20.306Z,6.90
2022-12-06T16:18:48.802Z,6.90
2022-12-06T16:21:22.412Z,6.90
2022-12-06T16:24:16.929Z,6.90
2022-12-06T16:26:45.297Z,6.90
2022-12-06T16:29:18.691Z,6.80
2022-12-06T16:31:45.852Z,6.80
2022-12-06T16:34:13.078Z,6.80
2022-12-06T16:37:00.823Z,6.80
2022-12-06T16:39:29.608Z,6.90
2022-12-06T16:41:56.644Z,6.90
2022-12-06T16:44:23.711Z,6.90
2022-12-06T16:46:50.694Z,6.90
2022-12-06T16:52:10.249Z,6.80
2022-12-06T16:54:41.219Z,6.90
2022-12-06T16:57:10.155Z,6.80
2022-12-06T16:59:37.108Z,6.80
2022-12-06T17:02:08.485Z,6.80
2022-12-06T17:04:38.658Z,6.80
2022-12-06T17:07:05.793Z,6.80
2022-12-06T17:09:32.694Z,6.80
2022-12-06T17:12:02.754Z,6.80
2022-12-06T17:14:30.089Z,6.80
2022-12-06T17:16:59.986Z,6.80
2022-12-06T17:19:28.427Z,6.80
2022-12-06T17:21:55.992Z,6.80
2022-12-06T17:24:25.442Z,6.90
2022-12-06T17:26:56.091Z,6.90
2022-12-06T17:29:23.845Z,6.90
2022-12-06T17:31:53.016Z,6.90
2022-12-06T17:34:20.566Z,6.90
2022-12-06T17:36:48.757Z,6.90
2022-12-06T17:39:18.655Z,6.90
2022-12-06T17:42:04.394Z,6.90
2022-12-06T17:44:31.451Z,6.90
2022-12-06T17:46:58.239Z,6.90
2022-12-06T17:49:26.606Z,6.80
2022-12-06T17:51:53.741Z,6.90
2022-12-06T17:54:21.170Z,6.90
2022-12-06T17:56:50.254Z,6.90
2022-12-06T17:59:19.880Z,6.90
2022-12-06T18:04:34.034Z,6.90
2022-12-06T18:07:00.834Z,6.90
2022-12-06T18:09:27.781Z,6.90
2022-12-06T18:11:55.785Z,6.90
2022-12-06T18:14:22.709Z,6.90
2022-12-06T18:16:49.623Z,6.90
2022-12-06T18:19:19.075Z,6.90
2022-12-06T18:21:46.077Z,6.90
2022-12-06T18:24:25.600Z,7.00
2022-12-06T18:26:54.685Z,6.90
2022-12-06T18:29:23.491Z,6.90
2022-12-06T18:31:50.948Z,6.90
2022-12-06T18:34:18.098Z,7.00
2022-12-06T18:36:45.006Z,6.90
2022-12-06T18:39:15.969Z,7.00
2022-12-06T18:41:46.200Z,7.00
2022-12-06T18:44:13.453Z,7.00
2022-12-06T18:46:42.538Z,7.00
2022-12-06T18:49:11.211Z,7.00
2022-12-06T18:51:38.840Z,7.00
2022-12-06T18:54:06.400Z,7.00
2022-12-06T18:56:34.640Z,7.00
2022-12-06T18:59:05.267Z,7.00
2022-12-06T19:01:34.602Z,7.00
2022-12-06T19:04:05.762Z,7.00
2022-12-06T19:06:35.488Z,7.00
2022-12-06T19:09:06.458Z,7.00
2022-12-06T19:11:36.576Z,7.00
2022-12-06T19:14:04.224Z,7.00
2022-12-06T19:16:38.781Z,6.90
2022-12-06T19:19:12.812Z,7.00
2022-12-06T19:21:43.729Z,7.00
2022-12-06T19:24:12.135Z,6.90
2022-12-06T19:26:38.997Z,7.00
2022-12-06T19:29:05.942Z,6.90
2022-12-06T19:31:33.352Z,6.90
2022-12-06T19:34:00.482Z,6.90
2022-12-06T19:36:29.398Z,6.90
2022-12-06T19:39:01.334Z,6.90
2022-12-06T19:41:28.765Z,7.00
2022-12-06T19:44:14.375Z,6.90
2022-12-06T19:46:45.726Z,7.00
2022-12-06T19:49:15.616Z,6.90
2022-12-06T19:51:45.401Z,6.90
2022-12-06T19:54:15.909Z,6.90
2022-12-06T19:56:42.746Z,6.90
2022-12-06T19:59:12.923Z,6.90
2022-12-06T20:01:43.061Z,6.90
2022-12-06T20:04:18.432Z,6.90
2022-12-06T20:06:45.908Z,6.90
2022-12-06T20:09:13.353Z,6.90
2022-12-06T20:11:59.903Z,6.90
2022-12-06T20:14:28.041Z,6.80
2022-12-06T20:16:55.009Z,6.80
2022-12-06T20:19:22.454Z,6.80
2022-12-06T20:21:49.458Z,6.80
2022-12-06T20:24:19.749Z,6.80
2022-12-06T20:26:49.372Z,6.80
2022-12-06T20:29:18.051Z,6.80
2022-12-06T20:31:45.727Z,6.80
2022-12-06T20:34:15.476Z,6.80
2022-12-06T20:36:43.679Z,6.80
2022-12-06T20:39:21.785Z,6.70
2022-12-06T20:41:50.182Z,6.70
2022-12-06T20:44:18.477Z,6.70
2022-12-06T20:46:46.195Z,6.70
2022-12-06T20:49:13.073Z,6.70
2022-12-06T20:51:40.148Z,6.70
2022-12-06T20:54:07.797Z,6.70
2022-12-06T20:56:42.507Z,6.60
2022-12-06T20:59:11.005Z,6.60
2022-12-06T21:01:40.799Z,6.60
2022-12-06T21:04:08.824Z,6.60
2022-12-06T21:06:35.828Z,6.60
2022-12-06T21:09:02.785Z,6.60
2022-12-06T21:11:29.821Z,6.60
2022-12-06T21:13:57.820Z,6.60
2022-12-06T21:16:30.216Z,6.60
2022-12-06T21:19:05.853Z,6.60
2022-12-06T21:21:38.282Z,6.60
2022-12-06T21:24:08.116Z,6.60
2022-12-06T21:26:35.315Z,6.60
2022-12-06T21:29:02.441Z,6.50
2022-12-06T21:31:32.099Z,6.50
2022-12-06T21:33:59.511Z,6.50
2022-12-06T21:36:26.588Z,6.50
2022-12-06T21:38:54.227Z,6.50
2022-12-06T21:41:21.885Z,6.50
2022-12-06T21:43:49.101Z,6.40
2022-12-06T21:46:19.100Z,6.40
2022-12-06T21:48:53.249Z,6.40
2022-12-06T21:51:20.438Z,6.40
2022-12-06T21:53:47.581Z,6.50
2022-12-06T21:56:20.151Z,6.50
2022-12-06T21:58:48.493Z,6.50
2022-12-06T22:01:22.383Z,6.50
2022-12-06T22:03:50.666Z,6.40
2022-12-06T22:06:17.801Z,6.40
2022-12-06T22:08:45.930Z,6.40
2022-12-06T22:11:16.702Z,6.40
2022-12-06T22:13:43.900Z,6.40
2022-12-06T22:16:12.494Z,6.40
2022-12-06T22:18:44.799Z,6.40
2022-12-06T22:21:19.078Z,6.30
2022-12-06T22:23:46.436Z,6.30
2022-12-06T22:26:16.321Z,6.30
2022-12-06T22:28:43.228Z,6.30
2022-12-06T22:31:11.483Z,6.30
2022-12-06T22:33:38.717Z,6.30
2022-12-06T22:36:06.220Z,6.40
2022-12-06T22:38:33.147Z,6.40
2022-12-06T22:41:01.359Z,6.40
2022-12-06T22:43:28.974Z,6.30
2022-12-06T22:45:56.218Z,6.40
2022-12-06T22:48:23.127Z,6.30
2022-12-06T22:50:49.935Z,6.30
2022-12-06T22:53:16.688Z,6.30
2022-12-06T22:55:43.483Z,6.30
2022-12-06T22:58:10.316Z,6.30
2022-12-06T23:00:37.107Z,6.20
2022-12-06T23:03:03.954Z,6.20
2022-12-06T23:05:30.781Z,6.20
2022-12-06T23:07:57.565Z,6.20
2022-12-06T23:10:24.447Z,6.20
2022-12-06T23:12:51.200Z,6.20
2022-12-06T23:15:18.051Z,6.20
2022-12-06T23:17:44.858Z,6.20
2022-12-06T23:20:11.908Z,6.20
2022-12-06T23:22:39.478Z,6.20
2022-12-06T23:25:06.927Z,6.20
2022-12-06T23:27:34.178Z,6.20
2022-12-06T23:30:01.224Z,6.20
2022-12-06T23:32:30.053Z,6.20
2022-12-06T23:34:56.861Z,6.20
2022-12-06T23:37:23.678Z,6.30
2022-12-06T23:39:50.468Z,6.30
2022-12-06T23:42:17.257Z,6.30
2022-12-06T23:44:44.036Z,6.30
2022-12-06T23:47:10.798Z,6.30
2022-12-06T23:49:37.577Z,6.30
2022-12-06T23:52:04.582Z,6.40
2022-12-06T23:54:31.362Z,6.30
2022-12-06T23:56:58.172Z,6.30
2022-12-06T23:59:24.990Z,6.40
